createdAt,value
2018-10-21T00:02:18.094Z,9.00
2018-10-21T00:05:01.556Z,9.00
2018-10-21T00:07:47.933Z,9.00
2018-10-21T00:10:39.628Z,8.90
2018-10-21T00:16:54.744Z,8.90
2018-10-21T00:19:40.912Z,8.90
2018-10-21T00:22:32.164Z,8.80
2018-10-21T00:25:21.293Z,8.80
2018-10-21T00:28:13.254Z,8.70
2018-10-21T00:31:00.732Z,8.70
2018-10-21T00:33:42.531Z,8.70
2018-10-21T00:39:26.675Z,8.70
2018-10-21T00:42:06.782Z,8.60
2018-10-21T00:45:17.264Z,8.60
2018-10-21T00:48:17.590Z,8.60
2018-10-21T00:51:13.698Z,8.70
2018-10-21T00:54:05.937Z,8.70
2018-10-21T00:56:54.738Z,8.70
2018-10-21T00:59:49.538Z,8.60
2018-10-21T01:02:31.693Z,8.60
2018-10-21T01:05:24.192Z,8.50
2018-10-21T01:08:12.744Z,8.50
2018-10-21T01:11:19.021Z,8.50
2018-10-21T01:19:31.295Z,8.40
2018-10-21T01:22:26.433Z,8.40
2018-10-21T01:25:09.276Z,8.30
2018-10-21T01:27:59.631Z,8.30
2018-10-21T01:31:42.628Z,8.40
2018-10-21T01:37:17.868Z,8.40
2018-10-21T01:46:30.550Z,8.50
2018-10-21T01:49:11.045Z,8.40
2018-10-21T01:54:50.935Z,8.50
2018-10-21T01:57:43.129Z,8.50
2018-10-21T02:00:23.402Z,8.40
2018-10-21T02:03:12.731Z,8.30
2018-10-21T02:06:01.912Z,8.30
2018-10-21T02:08:44.322Z,8.30
2018-10-21T02:11:25.122Z,8.30
2018-10-21T02:14:14.899Z,8.30
2018-10-21T02:17:00.083Z,8.20
2018-10-21T02:22:33.859Z,8.30
2018-10-21T02:25:17.450Z,8.30
2018-10-21T02:31:56.632Z,8.30
2018-10-21T02:37:35.591Z,8.40
2018-10-21T02:40:15.172Z,8.40
2018-10-21T02:42:53.569Z,8.50
2018-10-21T02:45:40.783Z,8.50
2018-10-21T02:48:41.516Z,8.40
2018-10-21T02:51:26.884Z,8.50
2018-10-21T02:54:11.872Z,8.40
2018-10-21T02:56:57.767Z,8.40
2018-10-21T02:59:40.326Z,8.30
2018-10-21T03:02:21.810Z,8.30
2018-10-21T03:07:51.125Z,8.30
2018-10-21T03:10:30.056Z,8.40
2018-10-21T03:13:08.865Z,8.40
2018-10-21T03:16:11.179Z,8.40
2018-10-21T03:18:49.902Z,8.40
2018-10-21T03:21:26.833Z,8.40
2018-10-21T03:24:08.281Z,8.30
2018-10-21T03:26:57.120Z,8.30
2018-10-21T03:29:47.943Z,8.20
2018-10-21T03:32:43.708Z,8.20
2018-10-21T03:35:18.128Z,8.30
2018-10-21T03:38:08.921Z,8.20
2018-10-21T03:40:51.789Z,8.10
2018-10-21T03:43:36.345Z,8.20
2018-10-21T03:46:46.193Z,8.20
2018-10-21T03:49:33.602Z,8.10
2018-10-21T03:52:14.558Z,8.20
2018-10-21T03:55:00.384Z,8.20
2018-10-21T03:57:41.224Z,8.20
2018-10-21T04:03:38.001Z,8.40
2018-10-21T04:06:16.184Z,8.50
2018-10-21T04:08:59.268Z,8.50
2018-10-21T04:11:42.690Z,8.50
2018-10-21T04:14:46.804Z,8.60
2018-10-21T04:20:10.042Z,8.50
2018-10-21T04:23:00.533Z,8.40
2018-10-21T04:25:43.382Z,8.40
2018-10-21T04:28:24.279Z,8.40
2018-10-21T04:31:06.236Z,8.40
2018-10-21T04:36:40.432Z,8.30
2018-10-21T04:42:14.827Z,8.20
2018-10-21T04:48:34.159Z,8.10
2018-10-21T04:51:20.091Z,8.20
2018-10-21T04:54:01.314Z,8.20
2018-10-21T04:57:02.742Z,8.20
2018-10-21T04:59:47.702Z,8.20
2018-10-21T05:05:17.917Z,8.20
2018-10-21T05:07:54.826Z,8.10
2018-10-21T05:10:39.438Z,8.20
2018-10-21T05:13:31.989Z,8.10
2018-10-21T05:16:30.052Z,8.10
2018-10-21T05:22:09.191Z,8.10
2018-10-21T05:24:54.226Z,8.10
2018-10-21T05:27:31.282Z,8.10
2018-10-21T05:30:20.694Z,8.10
2018-10-21T05:32:59.503Z,8.10
2018-10-21T05:41:42.897Z,8.10
2018-10-21T05:44:33.014Z,8.10
2018-10-21T05:47:17.783Z,8.10
2018-10-21T05:50:14.570Z,8.10
2018-10-21T05:53:29.379Z,8.00
2018-10-21T05:56:11.307Z,8.00
2018-10-21T06:05:24.924Z,8.00
2018-10-21T06:08:32.137Z,8.10
2018-10-21T06:11:20.509Z,8.20
2018-10-21T06:14:04.246Z,8.10
2018-10-21T06:17:33.719Z,8.20
2018-10-21T06:20:27.281Z,8.10
2018-10-21T06:23:24.039Z,8.10
2018-10-21T06:28:02.454Z,8.20
2018-10-21T06:30:55.028Z,8.20
2018-10-21T06:36:37.651Z,8.40
2018-10-21T06:39:15.239Z,8.40
2018-10-21T06:42:07.315Z,8.50
2018-10-21T06:45:13.420Z,8.50
2018-10-21T06:48:23.086Z,8.50
2018-10-21T06:51:01.843Z,8.40
2018-10-21T06:53:58.080Z,8.40
2018-10-21T06:56:50.594Z,8.30
2018-10-21T06:59:34.231Z,8.40
2018-10-21T07:02:11.267Z,8.40
2018-10-21T07:08:05.724Z,8.60
2018-10-21T07:10:45.350Z,8.60
2018-10-21T07:13:23.986Z,8.70
2018-10-21T07:16:15.056Z,8.70
2018-10-21T07:19:15.100Z,8.70
2018-10-21T07:22:04.041Z,8.80
2018-10-21T07:25:05.933Z,8.80
2018-10-21T07:30:46.510Z,9.00
2018-10-21T07:33:36.061Z,9.10
2018-10-21T07:36:27.446Z,9.20
2018-10-21T07:42:18.019Z,10.70
2018-10-21T07:44:58.733Z,12.00
2018-10-21T07:47:40.671Z,13.00
2018-10-21T07:53:14.319Z,14.50
2018-10-21T07:56:03.968Z,14.80
2018-10-21T07:58:55.434Z,15.20
2018-10-21T08:04:28.923Z,16.20
2018-10-21T08:07:15.113Z,16.20
2018-10-21T08:10:27.785Z,16.70
2018-10-21T08:13:19.934Z,17.10
2018-10-21T08:16:00.287Z,17.40
2018-10-21T08:19:44.908Z,17.60
2018-10-21T08:22:55.441Z,17.80
2018-10-21T08:25:50.875Z,18.10
2018-10-21T08:28:55.322Z,18.30
2018-10-21T08:31:55.852Z,18.60
2018-10-21T08:51:13.219Z,18.80
2018-10-21T08:57:00.115Z,18.60
2018-10-21T09:05:46.427Z,19.30
2018-10-21T09:18:58.220Z,19.80
2018-10-21T09:21:59.430Z,19.90
2018-10-21T09:25:09.705Z,19.70
2018-10-21T09:28:02.233Z,19.40
2018-10-21T09:30:48.996Z,19.30
2018-10-21T09:33:52.525Z,18.70
2018-10-21T09:40:02.167Z,18.10
2018-10-21T09:42:43.292Z,18.10
2018-10-21T09:48:33.000Z,17.80
2018-10-21T09:51:24.032Z,17.70
2018-10-21T09:54:15.892Z,17.90
2018-10-21T09:57:14.718Z,17.80
2018-10-21T09:59:59.287Z,17.70
2018-10-21T10:03:04.808Z,17.80
2018-10-21T10:06:05.491Z,17.90
2018-10-21T10:14:54.582Z,18.40
2018-10-21T10:29:02.955Z,18.80
2018-10-21T10:32:10.439Z,18.70
2018-10-21T10:35:01.398Z,18.60
2018-10-21T10:37:45.139Z,18.40
2018-10-21T10:40:38.061Z,18.70
2018-10-21T10:43:45.360Z,19.00
2018-10-21T10:52:29.659Z,18.70
2018-10-21T11:20:43.893Z,19.10
2018-10-21T12:01:22.519Z,18.10
2018-10-21T12:20:04.423Z,18.70
2018-10-21T12:23:04.653Z,19.00
2018-10-21T12:49:48.191Z,19.20
2018-10-21T12:56:00.859Z,19.30
2018-10-21T13:25:51.591Z,19.10
2018-10-21T13:29:02.239Z,18.80
2018-10-21T13:31:49.158Z,18.80
2018-10-21T13:34:38.381Z,18.70
2018-10-21T14:05:56.072Z,18.30
2018-10-21T14:11:56.924Z,18.10
2018-10-21T14:20:39.992Z,18.00
2018-10-21T14:35:29.976Z,17.50
2018-10-21T15:56:40.801Z,16.70
2018-10-21T16:21:27.778Z,16.30
2018-10-21T16:24:15.449Z,15.80
2018-10-21T16:46:10.123Z,15.20
2018-10-21T16:57:08.830Z,15.00
2018-10-21T17:00:01.390Z,14.80
2018-10-21T17:07:48.754Z,14.70
2018-10-21T17:19:00.304Z,14.20
2018-10-21T17:22:18.460Z,13.90
2018-10-21T17:25:03.285Z,13.80
2018-10-21T17:27:58.075Z,13.70
2018-10-21T17:30:56.628Z,13.60
2018-10-21T17:34:01.374Z,13.70
2018-10-21T17:39:53.483Z,13.60
2018-10-21T17:42:58.284Z,13.50
2018-10-21T17:45:45.882Z,13.40
2018-10-21T18:00:06.774Z,13.20
2018-10-21T18:02:59.237Z,13.10
2018-10-21T18:05:50.467Z,13.10
2018-10-21T18:08:41.459Z,13.00
2018-10-21T18:11:42.331Z,13.10
2018-10-21T18:21:01.931Z,12.90
2018-10-21T18:23:43.293Z,12.90
2018-10-21T18:26:28.617Z,12.80
2018-10-21T18:29:27.469Z,12.80
2018-10-21T18:35:20.197Z,12.60
2018-10-21T18:45:05.276Z,12.60
2018-10-21T18:55:20.383Z,12.50
2018-10-21T19:01:09.479Z,12.40
2018-10-21T19:03:59.081Z,12.30
2018-10-21T19:10:28.825Z,12.40
2018-10-21T19:13:26.397Z,12.30
2018-10-21T19:38:00.542Z,12.10
2018-10-21T19:40:58.620Z,12.00
2018-10-21T19:47:10.593Z,11.90
2018-10-21T19:53:15.638Z,11.80
2018-10-21T19:56:00.794Z,11.70
2018-10-21T20:01:54.946Z,11.60
2018-10-21T20:04:37.515Z,11.50
2018-10-21T20:07:21.575Z,11.60
2018-10-21T20:13:01.004Z,11.50
2018-10-21T20:15:56.201Z,11.50
2018-10-21T20:18:44.016Z,11.50
2018-10-21T20:21:30.634Z,11.50
2018-10-21T20:25:21.350Z,11.50
2018-10-21T20:28:04.568Z,11.50
2018-10-21T20:31:02.615Z,11.40
2018-10-21T20:33:55.889Z,11.50
2018-10-21T20:36:40.623Z,11.40
2018-10-21T20:39:38.242Z,11.50
2018-10-21T20:45:28.353Z,11.40
2018-10-21T20:48:18.836Z,11.30
2018-10-21T20:51:09.392Z,11.30
2018-10-21T20:54:08.674Z,11.20
2018-10-21T20:56:55.909Z,11.10
2018-10-21T20:59:33.526Z,11.00
2018-10-21T21:02:31.521Z,11.00
2018-10-21T21:05:26.323Z,10.90
2018-10-21T21:08:33.395Z,11.00
2018-10-21T21:11:26.296Z,10.90
2018-10-21T21:14:15.299Z,10.80
2018-10-21T21:17:07.153Z,10.80
2018-10-21T21:19:55.143Z,10.80
2018-10-21T21:23:04.640Z,10.80
2018-10-21T21:25:52.334Z,10.80
2018-10-21T21:28:44.909Z,10.80
2018-10-21T21:34:15.394Z,10.80
2018-10-21T21:37:05.054Z,11.10
2018-10-21T21:39:54.472Z,10.80
2018-10-21T21:42:34.618Z,11.00
2018-10-21T21:45:17.037Z,11.10
2018-10-21T21:48:12.588Z,11.10
2018-10-21T21:51:02.410Z,11.20
2018-10-21T21:53:57.232Z,11.30
2018-10-21T21:56:49.108Z,11.30
2018-10-21T21:59:34.712Z,11.30
2018-10-21T22:05:29.899Z,11.50
2018-10-21T22:08:42.965Z,11.40
2018-10-21T22:11:24.035Z,11.50
2018-10-21T22:16:58.927Z,11.50
2018-10-21T22:19:47.024Z,11.40
2018-10-21T22:22:47.008Z,11.30
2018-10-21T22:25:37.107Z,11.30
2018-10-21T22:28:29.975Z,11.30
2018-10-21T22:34:47.940Z,11.30
2018-10-21T22:37:24.267Z,11.20
2018-10-21T22:40:17.260Z,11.30
2018-10-21T22:43:05.721Z,11.30
2018-10-21T22:45:55.609Z,11.40
2018-10-21T22:48:46.869Z,11.40
2018-10-21T22:51:29.782Z,11.50
2018-10-21T22:54:47.326Z,11.60
2018-10-21T22:57:41.801Z,11.60
2018-10-21T23:03:22.784Z,11.70
2018-10-21T23:06:10.583Z,11.70
2018-10-21T23:08:52.549Z,11.70
2018-10-21T23:21:56.832Z,11.70
2018-10-21T23:24:48.001Z,11.70
2018-10-21T23:27:28.906Z,11.70
2018-10-21T23:30:08.588Z,11.70
2018-10-21T23:35:56.825Z,11.70
2018-10-21T23:38:40.786Z,11.70
2018-10-21T23:41:33.467Z,11.80
2018-10-21T23:44:24.626Z,11.70
2018-10-21T23:49:59.486Z,11.70
2018-10-21T23:52:42.723Z,11.90
2018-10-21T23:58:17.539Z,11.80
